Waverly, NE (68462)

5:02 AM CST on February 10, 2016 (GMT -0600)
Aspen Park South West | | Change Station
CLOSE
Current Station
Personal Weather Station
Location: Waverly, NE
Elevation: 1115 ft
Nearby Weather Stations

Elev 1115 ft 40.91 °N, 96.54 °W | Updated 8 seconds ago

Overcast
Overcast
27.9 °F
Feels Like 22 °F
N
5.8
Wind Variable Wind from South
Gusts 7.4 mph

Today
High -- | Low -- °F
--% Chance of Precip.
Yesterday
High -- | Low -- °F
Precip. -- in
Pressure 30.12 in
Visibility 10.0 miles
Clouds Overcast 9500 ft
Windchill 22 °F
Dew Point 13 °F
Humidity 54%
Rainfall 0.00 in
Snow Depth Not available.
7:27 AM 5:54 PM
Waxing Crescent, 5% visible
METAR KLNK 101054Z 19007KT 10SM OVC095 M03/M08 A3007 RMK AO2 SLP197 T10281078
Pressure 30.12 in
Visibility 10.0 miles
Clouds Overcast 9500 ft
Windchill 22 °F
Dew Point 13 °F
Humidity 54%
Rainfall 0.00 in
Snow Depth Not available.
7:27 AM 5:54 PM
Waxing Crescent, 5% visible
METAR KLNK 101054Z 19007KT 10SM OVC095 M03/M08 A3007 RMK AO2 SLP197 T10281078

10-Day Weather Forecast

Almanac

Astronomy

Feb. 10, 2016 Rise Set
Actual Time
Civil Twilight
Nautical Twilight
Astronomical Twilight
Moon
Length of Visible Light
Length of Day
Tomorrow will be .
, % of the Moon is Illuminated

Today's Extremes

State Highs State Lows

Community

WunderPhotos

Upload Photos

1,891,830 photos uploaded!

WunderBlog® & News

Nearby

Air Quality

  Air Quality AQ Index Pollutant
Not available.

Snow Depth

Station Depth Elevation

Earthquake Activity

City Distance Mag. Time & Date
Minimum magnitude displayed is 2.5.

Coastal Water Temperatures

Place Temperature

Stations

Nearby Weather Stations

Station Location Temp. Windchill Dew Point Humidity Wind Precip. Elev Updated Type
                   

Watches & Warnings

There are currently no watches in effect.